Time;durP1;ratioP1;P1;durP2;ratioP2;P2;SDS_P1;SDS_P2;PMS_P1;PMS_P2;Temp;Humidity;BMP_temperature;BMP_pressure;BME280_temperature;BME280_humidity;BME280_pressure;Samples;Min_cycle;Max_cycle;Signal;HPM_P1;HPM_P2
2023/09/04 00:00:55;;;;;;;3.85;2.50;;;19.00;92.20;;;;;;4890961;29;20046;-17
2023/09/04 00:03:22;;;;;;;3.28;2.22;;;19.00;92.30;;;;;;4908957;29;20400;-17
2023/09/04 00:05:48;;;;;;;3.45;2.38;;;19.00;92.30;;;;;;4885268;29;20311;-16
2023/09/04 00:08:14;;;;;;;3.40;2.30;;;18.90;92.70;;;;;;4904060;29;20028;-17
2023/09/04 00:10:40;;;;;;;3.28;2.40;;;18.90;92.40;;;;;;4902324;29;20246;-16
2023/09/04 00:13:06;;;;;;;3.60;2.70;;;18.90;92.50;;;;;;4909838;29;20024;-17
2023/09/04 00:15:32;;;;;;;4.60;2.60;;;18.90;92.60;;;;;;4889310;29;20376;-16
2023/09/04 00:17:57;;;;;;;3.05;2.42;;;18.90;92.60;;;;;;4920609;29;20155;-16
2023/09/04 00:20:24;;;;;;;3.07;2.40;;;18.80;92.60;;;;;;4896743;29;20548;-16
2023/09/04 00:22:50;;;;;;;4.18;2.50;;;18.80;92.70;;;;;;4903411;29;20193;-16
2023/09/04 00:25:16;;;;;;;4.22;2.70;;;18.80;92.70;;;;;;4899298;29;20039;-16
2023/09/04 00:27:42;;;;;;;3.90;2.60;;;18.80;92.80;;;;;;4908126;29;20141;-16
2023/09/04 00:30:08;;;;;;;4.40;2.53;;;18.80;92.80;;;;;;4908187;29;20039;-16
2023/09/04 00:32:34;;;;;;;3.90;2.80;;;18.70;92.90;;;;;;4914153;29;20251;-17
2023/09/04 00:35:00;;;;;;;3.60;2.60;;;18.70;92.90;;;;;;4884282;29;20036;-15
2023/09/04 00:37:26;;;;;;;4.67;2.87;;;18.70;93.00;;;;;;4887523;29;20509;-16
2023/09/04 00:39:51;;;;;;;3.85;2.70;;;18.70;93.00;;;;;;4918736;29;20039;-16
2023/09/04 00:42:17;;;;;;;4.33;3.00;;;18.70;93.00;;;;;;4916992;29;20405;-16
2023/09/04 00:44:46;;;;;;;3.72;2.80;;;18.70;93.10;;;;;;4892121;29;20496;-17
2023/09/04 00:47:14;;;;;;;4.65;2.72;;;18.90;94.80;;;;;;4906252;29;20038;-16
2023/09/04 00:49:42;;;;;;;3.90;2.67;;;18.60;93.20;;;;;;4905969;29;20031;-16
2023/09/04 00:52:10;;;;;;;4.83;3.00;;;18.60;93.20;;;;;;4898105;29;20039;-16
2023/09/04 00:54:37;;;;;;;4.05;3.08;;;18.60;93.20;;;;;;4906707;29;20393;-16
2023/09/04 00:57:05;;;;;;;4.22;2.72;;;18.60;93.30;;;;;;4917652;29;20047;-17
2023/09/04 00:59:31;;;;;;;4.13;2.83;;;18.50;93.30;;;;;;4905415;29;20402;-16
2023/09/04 01:02:01;;;;;;;4.50;3.10;;;18.60;94.60;;;;;;4900167;23;20247;-84
2023/09/04 01:04:27;;;;;;;4.70;3.13;;;18.50;93.40;;;;;;4885541;29;20204;-84
2023/09/04 01:06:53;;;;;;;5.15;3.13;;;18.50;93.40;;;;;;4882500;29;20508;-84
2023/09/04 01:09:22;;;;;;;4.53;3.30;;;18.50;93.50;;;;;;4901003;29;20852;-84
2023/09/04 01:11:55;;;;;;;3.87;2.87;;;18.50;93.50;;;;;;4879838;29;20016;-84
2023/09/04 01:14:23;;;;;;;4.40;2.92;;;18.50;93.50;;;;;;4900586;29;20310;-84
2023/09/04 01:16:51;;;;;;;4.55;3.22;;;18.50;93.50;;;;;;4890722;29;20027;-83
2023/09/04 01:19:18;;;;;;;4.15;2.97;;;18.40;93.60;;;;;;4877906;29;20663;-84
2023/09/04 01:21:44;;;;;;;4.32;3.03;;;18.40;93.50;;;;;;4879412;29;20512;-84
2023/09/04 01:24:10;;;;;;;4.13;3.00;;;18.40;93.60;;;;;;4911232;29;20455;-83
2023/09/04 01:26:57;;;;;;;5.75;3.40;;;18.30;93.60;;;;;;4902285;29;20032;-83
2023/09/04 01:29:50;;;;;;;4.47;3.08;;;18.40;93.70;;;;;;4880303;29;20199;-83
2023/09/04 01:32:26;;;;;;;4.85;3.35;;;18.30;93.70;;;;;;4888181;29;20219;-83
2023/09/04 01:34:53;;;;;;;4.50;3.27;;;18.30;93.70;;;;;;4886194;29;20016;-83
2023/09/04 01:37:21;;;;;;;4.85;3.38;;;18.30;93.70;;;;;;4885087;29;20235;-83
2023/09/04 01:39:48;;;;;;;6.65;3.50;;;18.20;93.70;;;;;;4924951;29;20015;-84
2023/09/04 01:42:14;;;;;;;4.28;3.28;;;18.20;93.80;;;;;;4900148;29;20055;-84
2023/09/04 01:44:43;;;;;;;5.60;3.73;;;18.20;93.80;;;;;;4921227;29;20031;-84
2023/09/04 01:47:09;;;;;;;5.53;3.55;;;17.20;94.90;;;;;;4876008;29;20158;-84
2023/09/04 01:49:34;;;;;;;5.07;3.42;;;18.10;93.80;;;;;;4897027;29;20023;-84
2023/09/04 01:52:00;;;;;;;5.70;3.70;;;18.10;93.80;;;;;;4891824;29;20374;-84
2023/09/04 01:54:27;;;;;;;5.18;3.55;;;18.10;93.80;;;;;;4900195;29;20032;-84
2023/09/04 01:56:52;;;;;;;5.03;3.28;;;18.10;93.90;;;;;;4891976;29;20036;-84
2023/09/04 01:59:18;;;;;;;5.33;3.40;;;18.00;93.90;;;;;;4917689;29;20417;-84
2023/09/04 02:01:44;;;;;;;5.38;3.88;;;18.00;93.90;;;;;;4906561;29;20521;-83
2023/09/04 02:04:10;;;;;;;5.90;3.47;;;18.00;93.90;;;;;;4853488;29;20067;-83
2023/09/04 02:06:35;;;;;;;5.37;3.70;;;17.90;93.90;;;;;;4875851;29;20438;-83
2023/09/04 02:09:02;;;;;;;4.85;3.53;;;17.90;93.90;;;;;;4885071;29;20039;-84
2023/09/04 02:11:28;;;;;;;5.23;3.50;;;17.90;94.00;;;;;;4912011;29;20024;-83
2023/09/04 02:13:54;;;;;;;5.05;3.50;;;17.80;94.00;;;;;;4900739;29;20032;-84
2023/09/04 02:16:22;;;;;;;5.55;3.85;;;17.80;94.00;;;;;;4874813;29;20062;-83
2023/09/04 02:18:48;;;;;;;5.07;3.28;;;17.80;94.00;;;;;;4879250;29;20031;-83
2023/09/04 02:21:14;;;;;;;4.77;3.23;;;17.80;94.00;;;;;;4872648;29;20048;-83
2023/09/04 02:23:40;;;;;;;6.82;4.10;;;17.70;94.00;;;;;;4883190;29;20043;-83
2023/09/04 02:26:06;;;;;;;5.18;3.58;;;17.70;94.00;;;;;;4882487;29;20103;-84
2023/09/04 02:28:32;;;;;;;5.78;3.72;;;17.70;94.40;;;;;;4887713;29;20446;-83
2023/09/04 02:30:57;;;;;;;5.70;3.67;;;17.60;94.10;;;;;;4872289;29;20032;-84
2023/09/04 02:33:23;;;;;;;5.80;4.10;;;17.60;94.10;;;;;;4871514;29;20934;-83
2023/09/04 02:35:51;;;;;;;5.73;3.47;;;17.50;94.10;;;;;;4859546;29;20091;-84
2023/09/04 02:38:19;;;;;;;5.50;3.53;;;17.50;94.10;;;;;;4905160;29;20028;-83
2023/09/04 02:40:45;;;;;;;6.57;3.38;;;17.50;94.10;;;;;;4870488;29;20040;-83
2023/09/04 02:43:10;;;;;;;5.05;3.17;;;17.40;94.10;;;;;;4885139;29;20436;-84
2023/09/04 02:45:36;;;;;;;5.73;3.37;;;17.20;95.30;;;;;;4905694;29;20028;-83
2023/09/04 02:48:02;;;;;;;4.60;3.40;;;17.20;95.40;;;;;;4877481;29;20545;-83
2023/09/04 02:50:28;;;;;;;4.90;3.20;;;16.70;95.30;;;;;;4885185;29;20513;-84
2023/09/04 02:52:53;;;;;;;4.55;3.28;;;17.30;94.10;;;;;;4891452;29;20508;-84
2023/09/04 02:55:19;;;;;;;4.90;3.50;;;17.30;94.10;;;;;;4850027;29;20262;-84
2023/09/04 02:57:45;;;;;;;4.70;3.08;;;17.20;94.10;;;;;;4894300;29;20024;-83
2023/09/04 03:00:13;;;;;;;4.70;3.28;;;17.20;94.10;;;;;;4883620;29;20525;-83
2023/09/04 03:02:38;;;;;;;5.23;3.30;;;17.20;94.10;;;;;;4902788;29;20060;-84
2023/09/04 03:05:04;;;;;;;5.55;3.47;;;17.10;94.10;;;;;;4882057;29;20063;-84
2023/09/04 03:07:30;;;;;;;4.78;3.30;;;17.00;94.10;;;;;;4879889;29;20032;-84
2023/09/04 03:09:57;;;;;;;4.83;2.87;;;17.00;94.20;;;;;;4885988;29;20021;-84
2023/09/04 03:12:27;;;;;;;4.93;3.23;;;17.00;94.30;;;;;;4873968;29;20333;-84
2023/09/04 03:14:57;;;;;;;5.13;3.35;;;16.90;94.30;;;;;;4870164;29;20029;-84
2023/09/04 03:17:23;;;;;;;4.70;3.28;;;16.90;94.30;;;;;;4899142;29;20413;-83
2023/09/04 03:19:53;;;;;;;5.43;3.35;;;16.90;94.40;;;;;;4891212;29;20437;-84
2023/09/04 03:22:23;;;;;;;4.93;3.60;;;16.80;94.40;;;;;;4867905;29;21851;-83
2023/09/04 03:24:49;;;;;;;4.13;3.00;;;16.80;94.40;;;;;;4887642;29;20033;-83
2023/09/04 03:27:15;;;;;;;4.50;3.15;;;16.10;95.60;;;;;;4874279;29;20607;-83
2023/09/04 03:29:41;;;;;;;5.15;3.53;;;16.70;94.40;;;;;;4874998;29;20108;-82
2023/09/04 03:32:07;;;;;;;5.38;3.72;;;;;;;;;;4893819;29;20012;-83
2023/09/04 03:34:33;;;;;;;5.07;3.40;;;16.70;94.20;;;;;;4910292;29;20062;-82
2023/09/04 03:36:58;;;;;;;4.82;3.22;;;16.70;94.50;;;;;;4877944;29;20505;-83
2023/09/04 03:39:25;;;;;;;5.40;3.00;;;16.60;94.50;;;;;;4924329;29;20041;-82
2023/09/04 03:41:51;;;;;;;5.05;3.45;;;16.30;95.90;;;;;;4902926;29;20092;-84
2023/09/04 03:44:17;;;;;;;5.30;3.47;;;16.60;94.50;;;;;;4894518;29;20120;-84
2023/09/04 03:46:43;;;;;;;5.55;3.22;;;16.50;94.50;;;;;;4935708;28;20049;-83
2023/09/04 03:49:09;;;;;;;4.43;3.13;;;15.60;96.00;;;;;;4918978;29;20128;-84
2023/09/04 03:51:35;;;;;;;4.43;3.03;;;16.40;94.50;;;;;;4911672;29;20044;-83
2023/09/04 03:54:03;;;;;;;5.60;3.30;;;17.50;96.40;;;;;;4903006;29;20020;-83
2023/09/04 03:56:29;;;;;;;5.60;3.57;;;16.40;94.60;;;;;;4916834;29;20108;-83
2023/09/04 03:58:56;;;;;;;5.57;3.33;;;16.40;94.60;;;;;;4911858;29;20084;-84
2023/09/04 04:01:22;;;;;;;3.90;2.80;;;16.40;94.60;;;;;;4912881;29;20037;-84
2023/09/04 04:03:52;;;;;;;4.95;3.40;;;16.40;94.60;;;;;;4932353;29;20041;-83
2023/09/04 04:06:20;;;;;;;5.25;3.20;;;16.70;96.20;;;;;;4896709;29;20222;-83
2023/09/04 04:08:46;;;;;;;7.27;3.40;;;16.30;94.60;;;;;;4910963;28;20033;-83
2023/09/04 04:11:12;;;;;;;5.07;3.53;;;16.30;94.60;;;;;;4911191;29;20029;-83
2023/09/04 04:13:38;;;;;;;5.82;3.70;;;16.30;94.70;;;;;;4900065;29;20031;-83
2023/09/04 04:16:04;;;;;;;4.80;3.20;;;16.30;94.70;;;;;;4928154;28;20248;-84
2023/09/04 04:18:30;;;;;;;5.57;3.50;;;16.00;96.40;;;;;;4913356;29;20020;-84
2023/09/04 04:20:57;;;;;;;6.18;3.72;;;16.20;94.80;;;;;;4920083;29;20100;-83
2023/09/04 04:23:23;;;;;;;5.00;3.17;;;16.60;96.50;;;;;;4894675;29;20386;-83
2023/09/04 04:25:50;;;;;;;5.40;3.53;;;16.20;94.90;;;;;;4915128;29;20049;-84
2023/09/04 04:28:20;;;;;;;5.70;3.63;;;16.10;95.00;;;;;;4911227;29;20267;-83
2023/09/04 04:30:46;;;;;;;5.88;3.80;;;16.40;97.20;;;;;;4897724;28;20059;-83
2023/09/04 04:33:12;;;;;;;6.20;3.70;;;16.10;95.00;;;;;;4899818;29;20092;-83
2023/09/04 04:35:41;;;;;;;5.68;3.50;;;16.10;95.00;;;;;;4899702;29;20037;-83
2023/09/04 04:38:08;;;;;;;5.07;3.60;;;16.10;95.00;;;;;;4923671;29;20136;-83
2023/09/04 04:40:35;;;;;;;4.93;3.37;;;16.10;95.00;;;;;;4903518;29;20037;-84
2023/09/04 04:43:03;;;;;;;6.20;3.53;;;16.10;95.00;;;;;;4914535;29;20027;-83
2023/09/04 04:45:29;;;;;;;5.70;3.60;;;16.10;95.00;;;;;;4889511;29;20040;-83
2023/09/04 04:47:55;;;;;;;4.90;3.33;;;16.00;95.00;;;;;;4888906;29;20525;-82
2023/09/04 04:50:21;;;;;;;5.33;3.30;;;16.00;95.10;;;;;;4907590;29;20048;-82
2023/09/04 04:52:47;;;;;;;4.70;3.15;;;15.50;96.50;;;;;;4876328;29;20243;-81
2023/09/04 04:55:13;;;;;;;5.15;3.50;;;16.00;95.10;;;;;;4871854;29;20502;-81
2023/09/04 04:57:39;;;;;;;5.07;3.13;;;16.00;95.10;;;;;;4892900;29;20025;-82
2023/09/04 05:00:09;;;;;;;4.32;3.17;;;15.90;95.10;;;;;;4906751;29;20493;-81
2023/09/04 05:02:34;;;;;;;5.40;2.92;;;15.90;95.10;;;;;;4847996;29;20533;-82
2023/09/04 05:05:00;;;;;;;5.70;3.40;;;15.90;95.10;;;;;;4881147;29;20084;-82
2023/09/04 05:07:28;;;;;;;5.33;3.57;;;15.90;95.10;;;;;;4866088;29;20407;-81
2023/09/04 05:09:55;;;;;;;6.38;3.50;;;15.80;95.10;;;;;;4879083;29;20599;-81
2023/09/04 05:12:21;;;;;;;4.82;2.85;;;15.90;95.20;;;;;;4869020;29;20032;-81
2023/09/04 05:14:47;;;;;;;4.82;3.28;;;15.80;95.20;;;;;;4885259;29;20036;-81
2023/09/04 05:17:13;;;;;;;5.17;3.07;;;15.80;95.20;;;;;;4865779;29;20047;-82
2023/09/04 05:19:39;;;;;;;5.25;3.40;;;15.80;95.30;;;;;;4902473;29;20510;-82
2023/09/04 05:22:04;;;;;;;5.37;3.13;;;15.80;95.30;;;;;;4884293;29;20032;-82
2023/09/04 05:24:30;;;;;;;4.80;3.22;;;15.80;95.40;;;;;;4871601;29;20036;-81
2023/09/04 05:26:56;;;;;;;6.17;3.70;;;15.80;95.40;;;;;;4877422;29;20133;-81
2023/09/04 05:29:23;;;;;;;6.63;3.87;;;15.80;95.50;;;;;;4885019;29;20538;-80
2023/09/04 05:31:52;;;;;;;5.53;3.53;;;15.80;95.50;;;;;;4864861;29;20040;-81
2023/09/04 05:34:18;;;;;;;4.53;3.28;;;15.80;95.60;;;;;;4870206;29;20021;-82
2023/09/04 05:36:44;;;;;;;5.47;3.23;;;15.80;95.60;;;;;;4889713;29;20063;-84
2023/09/04 05:39:10;;;;;;;5.40;3.50;;;15.80;95.60;;;;;;4851186;29;20058;-84
2023/09/04 05:41:36;;;;;;;5.05;3.67;;;15.80;95.70;;;;;;4886383;29;20025;-83
2023/09/04 05:44:03;;;;;;;4.70;3.20;;;15.80;95.70;;;;;;4877717;29;20144;-83
2023/09/04 05:46:32;;;;;;;5.97;4.03;;;15.80;95.80;;;;;;4887346;29;20028;-83
2023/09/04 05:48:58;;;;;;;5.35;3.78;;;15.80;95.80;;;;;;4873446;29;20085;-82
2023/09/04 05:51:24;;;;;;;5.75;3.60;;;15.80;95.90;;;;;;4882869;29;20029;-83
2023/09/04 05:53:50;;;;;;;5.20;3.38;;;15.80;95.90;;;;;;4882303;29;20667;-82
2023/09/04 05:56:17;;;;;;;6.03;3.90;;;15.80;96.00;;;;;;4863826;29;20230;-83
2023/09/04 05:58:48;;;;;;;6.00;4.05;;;15.80;96.10;;;;;;4865768;29;20680;-83
2023/09/04 06:01:15;;;;;;;5.63;3.50;;;15.90;96.20;;;;;;4865975;29;20215;-83
2023/09/04 06:03:43;;;;;;;5.75;3.90;;;15.90;96.20;;;;;;4869122;29;20062;-82
2023/09/04 06:06:09;;;;;;;5.93;3.63;;;15.90;96.30;;;;;;4907882;29;20043;-83
2023/09/04 06:08:36;;;;;;;6.38;3.85;;;15.90;96.40;;;;;;4891082;29;20023;-82
2023/09/04 06:11:02;;;;;;;7.13;4.40;;;16.00;96.50;;;;;;4858539;29;20341;-82
2023/09/04 06:13:28;;;;;;;6.68;4.25;;;16.00;96.50;;;;;;4857442;29;20027;-82
2023/09/04 06:15:56;;;;;;;6.55;3.92;;;16.00;96.50;;;;;;4884881;29;20056;-83
2023/09/04 06:18:23;;;;;;;6.00;3.77;;;16.10;96.60;;;;;;4847892;29;20031;-83
2023/09/04 06:20:50;;;;;;;6.13;3.78;;;16.10;96.70;;;;;;4881062;29;20496;-84
2023/09/04 06:23:16;;;;;;;6.72;4.18;;;16.10;96.70;;;;;;4869050;29;20052;-83
2023/09/04 06:25:42;;;;;;;7.20;4.50;;;16.20;96.80;;;;;;4857955;29;20593;-82
2023/09/04 06:28:13;;;;;;;6.67;4.43;;;16.20;96.90;;;;;;4878297;29;20045;-82
2023/09/04 06:30:38;;;;;;;7.90;4.50;;;16.30;97.10;;;;;;4880375;29;20387;-82
2023/09/04 06:33:05;;;;;;;7.32;4.85;;;16.30;97.10;;;;;;4895006;29;20021;-83
2023/09/04 06:35:31;;;;;;;7.65;4.95;;;16.30;97.10;;;;;;4847734;29;20028;-82
2023/09/04 06:37:58;;;;;;;6.72;4.40;;;16.40;97.20;;;;;;4866547;29;20694;-83
2023/09/04 06:40:24;;;;;;;7.60;4.87;;;16.40;97.30;;;;;;4892796;29;20339;-82
2023/09/04 06:42:52;;;;;;;7.75;4.82;;;16.50;97.40;;;;;;4890929;29;20035;-82
2023/09/04 06:45:18;;;;;;;7.90;5.10;;;16.60;97.50;;;;;;4890000;29;20504;-82
2023/09/04 06:47:44;;;;;;;7.22;5.15;;;16.60;97.50;;;;;;4894058;29;20327;-83
2023/09/04 06:50:10;;;;;;;7.37;4.87;;;16.70;97.60;;;;;;4877811;29;20043;-84
2023/09/04 06:52:36;;;;;;;7.63;5.00;;;16.70;99.50;;;;;;4855643;29;20028;-83
2023/09/04 06:55:03;;;;;;;7.20;4.40;;;16.80;97.70;;;;;;4902829;29;20035;-83
2023/09/04 06:57:30;;;;;;;7.97;4.90;;;16.80;97.80;;;;;;4887155;29;20079;-82
2023/09/04 06:59:56;;;;;;;6.53;4.32;;;16.90;97.90;;;;;;4883356;29;20032;-82
2023/09/04 07:02:22;;;;;;;6.55;4.40;;;17.00;98.00;;;;;;4906631;29;20044;-82
2023/09/04 07:04:48;;;;;;;7.72;4.60;;;17.00;98.00;;;;;;4879983;29;20038;-84
2023/09/04 07:07:14;;;;;;;7.00;4.80;;;17.10;98.10;;;;;;4874388;29;20667;-83
2023/09/04 07:09:40;;;;;;;7.77;4.90;;;17.20;98.30;;;;;;4862857;29;20279;-83
2023/09/04 07:12:06;;;;;;;7.00;4.90;;;17.30;98.30;;;;;;4882933;29;20138;-83
2023/09/04 07:14:32;;;;;;;7.60;4.67;;;17.30;98.40;;;;;;4890189;29;20430;-82
2023/09/04 07:16:58;;;;;;;6.78;4.50;;;17.40;98.50;;;;;;4905606;29;20039;-83
2023/09/04 07:19:24;;;;;;;7.82;4.70;;;17.50;98.60;;;;;;4907170;29;20028;-82
2023/09/04 07:21:50;;;;;;;6.45;4.30;;;17.60;98.70;;;;;;4862616;29;20028;-84
2023/09/04 07:24:16;;;;;;;7.07;4.10;;;17.70;98.80;;;;;;4897409;29;20036;-82
2023/09/04 07:26:42;;;;;;;5.95;4.18;;;18.70;99.90;;;;;;4870791;29;20036;-83
2023/09/04 07:29:08;;;;;;;7.38;4.60;;;17.90;99.00;;;;;;4879977;29;20055;-83
2023/09/04 07:31:34;;;;;;;7.35;4.65;;;18.10;99.20;;;;;;4900453;29;20027;-82
2023/09/04 07:34:01;;;;;;;6.07;4.20;;;18.40;99.90;;;;;;4874047;29;20119;-83
2023/09/04 07:36:27;;;;;;;7.53;4.60;;;18.30;99.50;;;;;;4881661;29;20440;-84
2023/09/04 07:38:53;;;;;;;7.40;4.75;;;18.50;99.60;;;;;;4892643;29;20080;-84
2023/09/04 07:41:19;;;;;;;6.60;4.45;;;18.60;99.70;;;;;;4912199;29;20057;-83
2023/09/04 07:43:45;;;;;;;7.00;4.37;;;18.70;99.90;;;;;;4885919;29;20319;-83
2023/09/04 07:46:10;;;;;;;6.80;4.50;;;18.90;99.90;;;;;;4867890;29;20028;-83
2023/09/04 07:48:36;;;;;;;7.33;4.70;;;19.10;99.90;;;;;;4893858;29;20035;-83
2023/09/04 07:51:06;;;;;;;7.05;4.53;;;19.30;99.90;;;;;;4859799;29;20032;-84
2023/09/04 07:53:32;;;;;;;6.63;4.72;;;19.50;99.90;;;;;;4893157;29;20032;-84
2023/09/04 07:55:57;;;;;;;6.30;4.67;;;19.80;99.90;;;;;;4906615;29;20035;-84
2023/09/04 07:58:24;;;;;;;6.68;4.70;;;20.00;99.90;;;;;;4906586;29;20059;-82
2023/09/04 08:00:51;;;;;;;6.88;4.60;;;20.20;99.90;;;;;;4875958;29;20039;-83
2023/09/04 08:03:17;;;;;;;6.87;4.60;;;20.40;99.90;;;;;;4891335;29;20064;-82
2023/09/04 08:05:43;;;;;;;6.55;4.40;;;20.60;99.90;;;;;;4897961;29;20032;-83
2023/09/04 08:08:10;;;;;;;6.95;4.60;;;20.90;99.90;;;;;;4871772;29;20072;-83
2023/09/04 08:10:39;;;;;;;7.70;4.60;;;21.20;99.90;;;;;;4901594;29;21005;-83
2023/09/04 08:13:10;;;;;;;5.60;4.20;;;21.60;99.90;;;;;;4890119;29;20052;-83
2023/09/04 08:15:35;;;;;;;5.53;4.13;;;22.00;99.90;;;;;;4901710;29;20140;-84
2023/09/04 08:18:01;;;;;;;7.93;4.78;;;22.50;99.90;;;;;;4906389;29;20101;-85
2023/09/04 08:20:27;;;;;;;6.53;4.28;;;23.10;99.90;;;;;;4914063;29;20083;-84
2023/09/04 08:22:53;;;;;;;5.77;4.23;;;23.60;99.90;;;;;;4887417;29;20032;-84
2023/09/04 08:25:19;;;;;;;6.05;4.18;;;24.20;99.90;;;;;;4896518;29;20694;-84
2023/09/04 08:27:45;;;;;;;5.65;3.80;;;24.80;99.90;;;;;;4905672;29;20569;-84
2023/09/04 08:30:11;;;;;;;4.90;3.67;;;25.40;99.90;;;;;;4893493;29;20036;-85
2023/09/04 08:32:37;;;;;;;4.20;3.40;;;26.00;99.90;;;;;;4878929;29;20513;-85
2023/09/04 08:35:05;;;;;;;4.55;3.88;;;26.60;99.90;;;;;;4895770;29;20118;-85
2023/09/04 08:37:31;;;;;;;4.88;3.85;;;27.20;99.90;;;;;;4867996;29;20139;-84
2023/09/04 08:39:57;;;;;;;4.93;3.75;;;27.80;99.90;;;;;;4898265;29;20036;-85
2023/09/04 08:42:23;;;;;;;4.53;4.07;;;28.30;99.90;;;;;;4882343;29;20493;-86
2023/09/04 08:44:52;;;;;;;4.93;4.25;;;28.80;99.90;;;;;;4891199;29;20026;-86
2023/09/04 08:47:21;;;;;;;5.97;3.58;;;29.30;99.30;;;;;;4893668;29;20055;-85
2023/09/04 08:49:47;;;;;;;5.07;3.97;;;29.70;99.20;;;;;;4888175;29;20024;-85
2023/09/04 08:52:13;;;;;;;4.63;3.97;;;30.00;98.90;;;;;;4894734;29;20028;-84
2023/09/04 08:54:40;;;;;;;4.27;3.43;;;30.30;98.40;;;;;;4898085;29;20107;-84
2023/09/04 08:57:08;;;;;;;4.07;3.55;;;30.50;97.90;;;;;;4898257;29;20035;-86
2023/09/04 08:59:34;;;;;;;4.00;3.47;;;30.80;97.30;;;;;;4875400;29;20068;-84
2023/09/04 09:02:04;;;;;;;3.95;3.50;;;31.00;97.70;;;;;;4909460;29;20060;-86
2023/09/04 09:04:31;;;;;;;4.38;3.55;;;31.20;97.00;;;;;;4889911;29;20044;-85
2023/09/04 09:06:57;;;;;;;3.77;3.43;;;31.40;97.40;;;;;;4896773;29;20034;-87
2023/09/04 09:09:24;;;;;;;4.13;3.72;;;31.60;97.20;;;;;;4904394;29;20051;-85
2023/09/04 09:11:53;;;;;;;3.45;3.15;;;31.80;97.30;;;;;;4894490;29;20012;-87
2023/09/04 09:14:20;;;;;;;3.90;3.50;;;32.10;96.90;;;;;;4875420;29;20059;-85
2023/09/04 09:16:46;;;;;;;3.85;3.05;;;32.20;96.40;;;;;;4888678;29;20567;-85
2023/09/04 09:19:13;;;;;;;3.37;2.87;;;32.50;96.50;;;;;;4893766;29;20032;-85
2023/09/04 09:21:40;;;;;;;3.45;3.15;;;32.70;96.30;;;;;;4886043;29;20074;-85
2023/09/04 09:24:14;;;;;;;3.22;2.92;;;32.80;96.10;;;;;;4888335;29;20032;-86
2023/09/04 09:26:46;;;;;;;3.67;3.28;;;32.90;94.60;;;;;;4913065;29;20188;-86
2023/09/04 09:29:13;;;;;;;4.35;3.20;;;33.20;95.40;;;;;;4879679;29;20427;-86
2023/09/04 09:31:42;;;;;;;3.80;3.37;;;33.30;95.50;;;;;;4875039;29;20012;-86
2023/09/04 09:34:09;;;;;;;3.95;3.55;;;33.40;95.50;;;;;;4891753;29;20023;-86
2023/09/04 09:36:35;;;;;;;4.20;3.67;;;33.60;95.50;;;;;;4883688;29;20036;-86
2023/09/04 09:39:04;;;;;;;3.70;3.30;;;33.70;95.20;;;;;;4882808;29;20040;-86
2023/09/04 09:41:31;;;;;;;3.58;3.28;;;33.90;95.30;;;;;;4875386;29;20436;-86
2023/09/04 09:44:00;;;;;;;3.53;3.10;;;34.10;95.30;;;;;;4911028;29;20024;-85
2023/09/04 09:46:27;;;;;;;3.55;3.20;;;34.30;93.80;;;;;;4895040;29;20060;-86
2023/09/04 09:48:52;;;;;;;3.38;2.90;;;34.50;94.60;;;;;;4894278;29;20450;-86
2023/09/04 09:51:20;;;;;;;4.05;3.15;;;34.60;94.20;;;;;;4887616;29;20028;-86
2023/09/04 09:53:50;;;;;;;4.40;3.13;;;34.70;93.90;;;;;;4882424;29;20024;-85
2023/09/04 09:56:18;;;;;;;3.55;3.20;;;34.80;92.40;;;;;;4868238;29;20123;-85
2023/09/04 09:58:46;;;;;;;3.22;2.92;;;34.90;94.10;;;;;;4873989;29;20032;-86
2023/09/04 10:01:16;;;;;;;3.50;3.13;;;35.10;93.80;;;;;;4902669;29;20044;-87
2023/09/04 10:03:44;;;;;;;3.10;2.80;;;35.30;92.30;;;;;;4886814;29;20048;-86
2023/09/04 10:06:16;;;;;;;3.57;3.27;;;35.50;93.70;;;;;;4901859;29;20068;-85
2023/09/04 10:08:44;;;;;;;3.13;2.85;;;35.70;91.80;;;;;;4870887;29;20718;-86
2023/09/04 10:11:14;;;;;;;3.38;2.78;;;35.90;92.70;;;;;;4878574;29;20036;-84
2023/09/04 10:14:14;;;;;;;3.10;2.80;;;36.10;91.30;;;;;;4883795;29;20418;-84
2023/09/04 10:17:01;;;;;;;3.63;2.65;;;36.30;86.30;;;;;;4860915;29;20318;-85
2023/09/04 10:19:30;;;;;;;3.33;3.03;;;36.50;88.00;;;;;;4879047;29;20036;-85
2023/09/04 10:22:03;;;;;;;3.47;2.90;;;36.60;91.10;;;;;;4877793;29;20036;-87
2023/09/04 10:24:51;;;;;;;2.90;2.70;;;36.70;90.00;;;;;;4880452;29;20445;-87
2023/09/04 10:27:19;;;;;;;3.30;3.00;;;36.90;86.80;;;;;;4841307;29;20511;-86
2023/09/04 10:29:51;;;;;;;2.97;2.75;;;37.00;90.50;;;;;;4901962;29;20024;-86
2023/09/04 10:32:17;;;;;;;3.00;2.57;;;37.10;89.20;;;;;;4886880;29;20123;-86
2023/09/04 10:34:43;;;;;;;2.58;2.38;;;37.30;89.50;;;;;;4907213;29;20699;-85
2023/09/04 10:37:12;;;;;;;2.78;2.58;;;37.40;87.60;;;;;;4886092;29;20051;-85
2023/09/04 10:39:39;;;;;;;3.35;3.05;;;37.50;83.00;;;;;;4903916;29;20122;-86
2023/09/04 10:42:07;;;;;;;3.35;3.03;;;37.60;85.10;;;;;;4866612;29;20467;-85
2023/09/04 10:44:53;;;;;;;3.33;3.03;;;37.70;84.70;;;;;;4896151;29;20424;-87
2023/09/04 10:47:20;;;;;;;3.40;3.10;;;37.80;78.90;;;;;;4896999;29;20424;-85
2023/09/04 10:49:47;;;;;;;3.97;2.92;;;37.90;83.30;;;;;;4870406;29;20061;-85
2023/09/04 10:52:14;;;;;;;3.42;3.13;;;38.00;82.30;;;;;;4863577;29;20037;-85
2023/09/04 10:54:40;;;;;;;3.40;3.10;;;38.00;81.30;;;;;;4905945;29;20055;-85
2023/09/04 10:57:11;;;;;;;3.40;3.10;;;38.10;80.50;;;;;;4900275;29;20516;-86
2023/09/04 10:59:55;;;;;;;4.15;3.00;;;38.20;80.00;;;;;;4881781;29;20683;-86
2023/09/04 11:02:41;;;;;;;3.45;3.15;;;38.30;72.50;;;;;;4859327;29;20231;-86
2023/09/04 11:05:07;;;;;;;3.15;2.85;;;38.40;73.60;;;;;;4889232;29;20019;-86
2023/09/04 11:07:36;;;;;;;3.47;3.17;;;38.40;79.20;;;;;;4878209;29;20405;-85
2023/09/04 11:10:14;;;;;;;3.40;3.10;;;38.60;78.50;;;;;;4877494;29;20032;-85
2023/09/04 11:12:43;;;;;;;3.50;3.20;;;38.70;78.30;;;;;;4883900;29;20068;-85
2023/09/04 11:15:15;;;;;;;3.90;3.50;;;38.90;75.30;;;;;;4879040;29;20570;-86
2023/09/04 11:17:45;;;;;;;3.72;3.42;;;39.00;73.60;;;;;;4895023;29;20063;-86
2023/09/04 11:20:14;;;;;;;3.50;3.20;;;39.10;73.70;;;;;;4884014;29;20079;-84
2023/09/04 11:22:47;;;;;;;3.10;2.80;;;39.30;76.10;;;;;;4880465;29;20478;-85
2023/09/04 11:25:13;;;;;;;3.30;3.00;;;39.50;71.70;;;;;;4895624;29;20541;-86
2023/09/04 11:27:38;;;;;;;3.30;3.00;;;39.60;74.90;;;;;;4863859;29;20044;-85
2023/09/04 11:30:05;;;;;;;3.63;3.30;;;39.70;73.90;;;;;;4857544;29;20040;-83
2023/09/04 11:32:37;;;;;;;3.55;3.20;;;39.80;73.30;;;;;;4868433;29;20028;-85
2023/09/04 11:35:03;;;;;;;3.30;3.03;;;40.00;68.20;;;;;;4866928;29;20438;-83
2023/09/04 11:37:32;;;;;;;3.10;2.90;;;40.10;71.50;;;;;;4883365;29;20024;-85
2023/09/04 11:40:01;;;;;;;3.28;2.97;;;40.10;67.50;;;;;;4876796;29;20172;-85
2023/09/04 11:42:27;;;;;;;3.13;2.83;;;40.20;66.50;;;;;;4910360;29;20059;-85
2023/09/04 11:44:54;;;;;;;3.08;2.88;;;40.10;68.50;;;;;;4868751;29;20438;-85
2023/09/04 11:47:22;;;;;;;3.35;3.05;;;40.20;67.70;;;;;;4884641;29;20020;-84
2023/09/04 11:49:49;;;;;;;3.55;2.92;;;40.20;65.70;;;;;;4880996;29;20593;-85
2023/09/04 11:52:17;;;;;;;3.05;2.85;;;40.20;65.50;;;;;;4897971;29;20012;-84
2023/09/04 11:54:43;;;;;;;3.20;2.90;;;40.10;66.20;;;;;;4877385;29;20071;-85
2023/09/04 11:57:10;;;;;;;2.78;2.58;;;40.20;65.90;;;;;;4907418;29;20036;-84
2023/09/04 11:59:37;;;;;;;3.08;2.80;;;40.20;66.20;;;;;;4892559;29;20027;-85
2023/09/04 12:02:05;;;;;;;3.10;2.75;;;40.30;66.10;;;;;;4879948;29;20047;-82
2023/09/04 12:04:32;;;;;;;3.30;3.00;;;40.50;64.80;;;;;;4877555;29;20040;-85
2023/09/04 12:07:02;;;;;;;2.80;2.60;;;40.60;64.50;;;;;;4888376;29;20036;-84
2023/09/04 12:09:29;;;;;;;2.83;2.63;;;40.60;61.10;;;;;;4904398;29;20568;-85
2023/09/04 12:11:55;;;;;;;3.28;2.97;;;40.70;63.20;;;;;;4880525;29;20590;-84
2023/09/04 12:14:21;;;;;;;3.08;2.85;;;40.80;62.60;;;;;;4871650;29;20031;-83
2023/09/04 12:16:48;;;;;;;3.30;3.00;;;40.80;62.00;;;;;;4861190;29;20048;-83
2023/09/04 12:19:17;;;;;;;3.40;3.10;;;40.80;61.30;;;;;;4880937;29;20063;-82
2023/09/04 12:21:43;;;;;;;3.70;3.40;;;40.90;61.10;;;;;;4887800;29;20080;-84
2023/09/04 12:24:16;;;;;;;2.70;2.50;;;40.90;60.20;;;;;;4884522;29;20131;-83
2023/09/04 12:26:42;;;;;;;3.10;2.90;;;40.80;57.30;;;;;;4890682;29;20042;-85
2023/09/04 12:29:11;;;;;;;3.17;2.85;;;40.80;58.50;;;;;;4889374;29;20052;-84
2023/09/04 12:31:37;;;;;;;2.83;2.60;;;40.80;56.10;;;;;;4871766;29;20036;-84
2023/09/04 12:34:04;;;;;;;3.40;3.10;;;40.70;58.00;;;;;;4882042;29;20060;-84
2023/09/04 12:36:33;;;;;;;3.70;3.28;;;40.70;58.10;;;;;;4857407;29;20040;-84
2023/09/04 12:39:00;;;;;;;3.50;3.20;;;40.60;56.00;;;;;;4888877;29;20040;-82
2023/09/04 12:41:27;;;;;;;3.13;2.90;;;40.50;56.90;;;;;;4862882;29;20064;-84
2023/09/04 12:43:53;;;;;;;3.13;2.63;;;40.40;56.80;;;;;;4901705;29;20697;-82
2023/09/04 12:46:18;;;;;;;3.45;2.97;;;40.20;56.60;;;;;;4887891;29;20097;-84
2023/09/04 12:48:44;;;;;;;2.97;2.67;;;40.10;56.50;;;;;;4900039;29;20815;-84